Time;durP1;ratioP1;P1;durP2;ratioP2;P2;SDS_P1;SDS_P2;PMS_P1;PMS_P2;Temp;Humidity;BMP_temperature;BMP_pressure;BME280_temperature;BME280_humidity;BME280_pressure;Samples;Min_cycle;Max_cycle;Signal;HPM_P1;HPM_P2
2023/08/21 00:01:12;;;;;;;;;1.00;1.00;;;;;;;;4990831;28;45382;-95
2023/08/21 00:03:37;;;;;;;;;1.00;1.00;;;;;;;;4988089;28;45216;-94
2023/08/21 00:06:02;;;;;;;;;0.00;0.00;;;;;;;;4988800;28;45357;-95
2023/08/21 00:08:27;;;;;;;;;0.00;0.00;;;;;;;;4993563;28;45603;-94
2023/08/21 00:10:52;;;;;;;;;0.00;0.00;;;;;;;;4992099;28;46358;-95
2023/08/21 00:13:19;;;;;;;;;0.00;0.00;;;;;;;;4988046;28;45341;-94
2023/08/21 00:15:44;;;;;;;;;0.00;0.00;;;;;;;;4992489;28;45556;-95
2023/08/21 00:18:09;;;;;;;;;0.00;0.00;;;;;;;;4977646;28;46544;-94
2023/08/21 00:20:34;;;;;;;;;0.00;0.00;;;;;;;;4969377;28;48076;-95
2023/08/21 00:23:00;;;;;;;;;0.00;0.00;;;;;;;;4970879;28;45424;-94
2023/08/21 00:25:25;;;;;;;;;0.00;0.00;;;;;;;;4990897;28;45430;-95
2023/08/21 00:27:50;;;;;;;;;0.67;0.67;;;;;;;;4991474;28;45419;-94
2023/08/21 00:30:15;;;;;;;;;0.00;0.00;;;;;;;;4987165;28;45490;-95
2023/08/21 00:32:41;;;;;;;;;0.00;0.00;;;;;;;;4987261;28;46390;-94
2023/08/21 00:35:07;;;;;;;;;0.00;0.00;;;;;;;;4993696;28;45395;-94
2023/08/21 00:37:32;;;;;;;;;0.00;0.00;;;;;;;;4993119;28;45678;-94
2023/08/21 00:39:57;;;;;;;;;0.67;0.67;;;;;;;;4993009;28;45358;-95
2023/08/21 00:42:22;;;;;;;;;0.00;0.00;;;;;;;;4994105;28;45468;-95
2023/08/21 00:44:48;;;;;;;;;0.00;0.00;;;;;;;;4990823;28;45470;-96
2023/08/21 00:47:13;;;;;;;;;0.00;0.00;;;;;;;;4975359;28;45305;-94
2023/08/21 00:49:39;;;;;;;;;0.00;0.00;;;;;;;;4990298;28;46473;-95
2023/08/21 00:52:05;;;;;;;;;0.00;0.00;;;;;;;;4988013;28;45443;-95
2023/08/21 00:54:31;;;;;;;;;1.00;1.00;;;;;;;;4993277;28;45449;-94
2023/08/21 00:56:59;;;;;;;;;0.67;0.67;;;;;;;;4997981;28;45560;-95
2023/08/21 00:59:24;;;;;;;;;0.00;0.00;;;;;;;;4995262;28;45540;-95
2023/08/21 01:01:49;;;;;;;;;0.00;0.00;;;;;;;;4991105;28;45241;-94
2023/08/21 01:04:15;;;;;;;;;0.00;0.00;;;;;;;;4992444;28;45470;-94
2023/08/21 01:06:40;;;;;;;;;1.00;0.00;;;;;;;;4978327;28;45577;-95
2023/08/21 01:09:31;;;;;;;;;0.00;0.00;;;;;;;;4994928;28;45558;-95
2023/08/21 01:12:00;;;;;;;;;0.00;0.00;;;;;;;;4958964;28;46637;-95
2023/08/21 01:14:25;;;;;;;;;0.00;0.00;;;;;;;;4990877;28;45438;-95
2023/08/21 01:16:53;;;;;;;;;1.00;1.00;;;;;;;;4996232;28;45411;-95
2023/08/21 01:19:44;;;;;;;;;0.00;0.00;;;;;;;;4993196;28;45498;-94
2023/08/21 01:22:09;;;;;;;;;0.00;0.00;;;;;;;;4991827;28;45577;-95
2023/08/21 01:24:35;;;;;;;;;0.00;0.00;;;;;;;;4974471;28;45561;-94
2023/08/21 01:27:01;;;;;;;;;0.00;0.00;;;;;;;;4989516;28;45368;-95
2023/08/21 01:29:26;;;;;;;;;0.00;0.00;;;;;;;;4973794;28;46984;-95
2023/08/21 01:32:12;;;;;;;;;0.00;0.00;;;;;;;;4973967;28;45496;-95
2023/08/21 01:34:39;;;;;;;;;0.00;0.00;;;;;;;;4985273;28;45429;-94
2023/08/21 01:37:04;;;;;;;;;0.00;0.00;;;;;;;;4978744;28;45455;-95
2023/08/21 01:39:29;;;;;;;;;0.00;0.00;;;;;;;;4990383;28;46744;-94
2023/08/21 01:41:56;;;;;;;;;0.00;0.00;;;;;;;;4990784;28;45515;-95
2023/08/21 01:44:21;;;;;;;;;0.00;0.00;;;;;;;;4971123;28;45456;-95
2023/08/21 01:46:46;;;;;;;;;0.00;0.00;;;;;;;;4994677;28;45400;-95
2023/08/21 01:49:11;;;;;;;;;0.67;0.67;;;;;;;;4993320;28;45402;-94
2023/08/21 01:51:36;;;;;;;;;0.00;0.00;;;;;;;;4996699;28;45449;-95
2023/08/21 01:54:02;;;;;;;;;0.00;0.00;;;;;;;;4995660;28;46446;-95
2023/08/21 01:56:27;;;;;;;;;0.00;0.00;;;;;;;;4995404;28;45295;-95
2023/08/21 01:58:52;;;;;;;;;0.00;0.00;;;;;;;;4995167;28;45567;-94
2023/08/21 02:01:18;;;;;;;;;0.00;0.00;;;;;;;;4971980;28;45440;-94
2023/08/21 02:03:43;;;;;;;;;0.00;0.00;;;;;;;;4988698;28;45356;-95
2023/08/21 02:06:09;;;;;;;;;0.00;0.00;;;;;;;;4994156;28;45452;-95
2023/08/21 02:08:34;;;;;;;;;0.00;0.00;;;;;;;;4976205;28;47297;-95
2023/08/21 02:10:59;;;;;;;;;0.00;0.00;;;;;;;;4977056;28;45682;-94
2023/08/21 02:13:25;;;;;;;;;1.00;1.00;;;;;;;;4995122;28;47193;-94
2023/08/21 02:15:50;;;;;;;;;0.00;0.00;;;;;;;;4995062;28;45357;-95
2023/08/21 02:18:16;;;;;;;;;0.33;0.00;;;;;;;;4994536;28;45468;-94
2023/08/21 02:20:41;;;;;;;;;0.00;0.00;;;;;;;;4994525;28;45424;-95
2023/08/21 02:23:06;;;;;;;;;0.00;0.00;;;;;;;;4992711;28;45624;-95
2023/08/21 02:25:32;;;;;;;;;1.00;1.00;;;;;;;;4977581;28;45890;-94
2023/08/21 02:28:02;;;;;;;;;0.33;0.33;;;;;;;;4990199;28;46390;-95
2023/08/21 02:30:28;;;;;;;;;0.00;0.00;;;;;;;;4974468;28;45426;-94
2023/08/21 02:32:53;;;;;;;;;0.00;0.00;;;;;;;;4975670;28;45559;-94
2023/08/21 02:35:20;;;;;;;;;0.00;0.00;;;;;;;;4993154;28;45565;-94
2023/08/21 02:37:45;;;;;;;;;0.00;0.00;;;;;;;;4974514;28;47502;-95
2023/08/21 02:40:13;;;;;;;;;0.00;0.00;;;;;;;;4991515;28;45484;-94
2023/08/21 02:42:38;;;;;;;;;0.00;0.00;;;;;;;;4995028;28;45438;-95
2023/08/21 02:45:08;;;;;;;;;0.00;0.00;;;;;;;;4971404;28;45596;-94
2023/08/21 02:47:40;;;;;;;;;0.00;0.00;;;;;;;;4972625;28;46368;-94
2023/08/21 02:50:06;;;;;;;;;0.00;0.00;;;;;;;;4991038;28;45567;-94
2023/08/21 02:52:31;;;;;;;;;0.00;0.00;;;;;;;;4991019;28;45512;-94
2023/08/21 02:54:57;;;;;;;;;0.00;0.00;;;;;;;;4993006;28;45401;-94
2023/08/21 02:57:23;;;;;;;;;0.00;0.00;;;;;;;;4994930;28;45440;-95
2023/08/21 02:59:48;;;;;;;;;0.00;0.00;;;;;;;;4973502;28;45396;-95
2023/08/21 03:02:13;;;;;;;;;0.00;0.00;;;;;;;;4992406;28;45368;-95
2023/08/21 03:04:38;;;;;;;;;0.33;0.33;;;;;;;;4988612;28;46382;-95
2023/08/21 03:07:04;;;;;;;;;0.00;0.00;;;;;;;;4973554;28;47139;-94
2023/08/21 03:09:29;;;;;;;;;0.00;0.00;;;;;;;;4990752;28;45466;-95
2023/08/21 03:11:54;;;;;;;;;0.00;0.00;;;;;;;;4993252;28;45657;-94
2023/08/21 03:14:19;;;;;;;;;0.00;0.00;;;;;;;;4988472;28;45281;-96
2023/08/21 03:16:45;;;;;;;;;0.00;0.00;;;;;;;;4993660;28;46381;-94
2023/08/21 03:19:10;;;;;;;;;0.00;0.00;;;;;;;;4973489;28;45431;-95
2023/08/21 03:21:35;;;;;;;;;0.33;0.33;;;;;;;;4991525;28;45547;-95
2023/08/21 03:24:01;;;;;;;;;0.00;0.00;;;;;;;;4989341;28;45554;-95
2023/08/21 03:26:26;;;;;;;;;0.00;0.00;;;;;;;;4991591;28;46201;-94
2023/08/21 03:28:54;;;;;;;;;0.00;0.00;;;;;;;;4991928;28;45454;-94
2023/08/21 03:31:19;;;;;;;;;0.67;0.67;;;;;;;;4990942;28;45242;-95
2023/08/21 03:33:45;;;;;;;;;0.00;0.00;;;;;;;;4988919;28;45193;-95
2023/08/21 03:36:10;;;;;;;;;0.00;0.00;;;;;;;;4991755;28;47637;-94
2023/08/21 03:38:35;;;;;;;;;0.00;0.00;;;;;;;;4992159;28;45357;-95
2023/08/21 03:41:01;;;;;;;;;0.00;0.00;;;;;;;;4991687;28;45407;-94
2023/08/21 03:43:26;;;;;;;;;0.67;0.67;;;;;;;;4993221;28;45423;-95
2023/08/21 03:45:52;;;;;;;;;0.00;0.00;;;;;;;;5000733;28;45414;-94
2023/08/21 03:48:17;;;;;;;;;0.67;0.67;;;;;;;;5000699;28;45345;-95
2023/08/21 03:50:42;;;;;;;;;0.00;0.00;;;;;;;;4983072;28;45220;-95
2023/08/21 03:53:07;;;;;;;;;0.67;0.67;;;;;;;;4999503;28;45203;-94
2023/08/21 03:55:33;;;;;;;;;0.00;0.00;;;;;;;;4999958;28;46412;-94
2023/08/21 03:57:58;;;;;;;;;0.00;0.00;;;;;;;;4991133;28;45909;-95
2023/08/21 04:00:23;;;;;;;;;0.00;0.00;;;;;;;;5001273;28;45293;-94
2023/08/21 04:02:49;;;;;;;;;0.67;0.67;;;;;;;;4981313;28;45298;-95
2023/08/21 04:05:14;;;;;;;;;1.00;1.00;;;;;;;;4998309;28;45644;-94
2023/08/21 04:07:39;;;;;;;;;0.00;0.00;;;;;;;;4994001;28;45431;-94
2023/08/21 04:10:05;;;;;;;;;0.00;0.00;;;;;;;;4971384;28;45438;-94
2023/08/21 04:12:30;;;;;;;;;0.33;0.33;;;;;;;;4991714;28;45499;-94
2023/08/21 04:14:56;;;;;;;;;0.67;0.67;;;;;;;;4990885;28;46155;-93
2023/08/21 04:17:21;;;;;;;;;0.00;0.00;;;;;;;;4991249;28;45484;-94
2023/08/21 04:19:47;;;;;;;;;0.00;0.00;;;;;;;;4992530;28;45484;-94
2023/08/21 04:22:12;;;;;;;;;1.33;1.33;;;;;;;;4973774;28;45543;-95
2023/08/21 04:24:37;;;;;;;;;1.00;1.00;;;;;;;;4969694;28;48158;-94
2023/08/21 04:27:02;;;;;;;;;0.00;0.00;;;;;;;;4993593;28;45456;-94
2023/08/21 04:29:28;;;;;;;;;0.00;0.00;;;;;;;;4992230;28;45419;-95
2023/08/21 04:31:53;;;;;;;;;0.67;0.67;;;;;;;;4993058;28;45574;-94
2023/08/21 04:34:18;;;;;;;;;0.33;0.33;;;;;;;;4993479;28;46493;-95
2023/08/21 04:36:43;;;;;;;;;0.00;0.00;;;;;;;;4995975;28;45477;-94
2023/08/21 04:39:08;;;;;;;;;0.00;0.00;;;;;;;;4992703;28;45609;-95
2023/08/21 04:41:34;;;;;;;;;0.00;0.00;;;;;;;;4996131;28;45456;-94
2023/08/21 04:44:00;;;;;;;;;0.33;0.33;;;;;;;;4994171;28;45489;-95
2023/08/21 04:46:25;;;;;;;;;0.33;0.33;;;;;;;;4992497;28;45445;-94
2023/08/21 04:48:50;;;;;;;;;0.00;0.00;;;;;;;;4992155;28;45517;-94
2023/08/21 04:51:16;;;;;;;;;1.00;1.00;;;;;;;;4994065;28;45591;-94
2023/08/21 04:53:41;;;;;;;;;1.00;1.00;;;;;;;;4996341;28;45433;-95
2023/08/21 04:56:06;;;;;;;;;0.00;0.00;;;;;;;;4978427;28;45460;-95
2023/08/21 04:58:31;;;;;;;;;0.67;0.67;;;;;;;;4997134;28;45320;-94
2023/08/21 05:00:57;;;;;;;;;0.33;0.33;;;;;;;;4975958;28;45379;-95
2023/08/21 05:03:22;;;;;;;;;0.67;0.67;;;;;;;;4993078;28;46403;-94
2023/08/21 05:05:56;;;;;;;;;0.00;0.00;;;;;;;;4975315;28;45297;-93
2023/08/21 05:08:23;;;;;;;;;0.00;0.00;;;;;;;;4996682;28;45552;-95
2023/08/21 05:10:48;;;;;;;;;0.33;0.33;;;;;;;;4978719;28;45528;-94
2023/08/21 05:13:16;;;;;;;;;1.33;1.33;;;;;;;;4989058;28;46482;-94
2023/08/21 05:15:42;;;;;;;;;0.67;0.67;;;;;;;;4973594;28;45507;-94
2023/08/21 05:18:08;;;;;;;;;1.00;1.00;;;;;;;;4991704;28;45379;-96
2023/08/21 05:20:33;;;;;;;;;0.00;0.00;;;;;;;;4992054;28;45609;-94
2023/08/21 05:22:58;;;;;;;;;1.67;1.67;;;;;;;;4977764;28;46011;-95
2023/08/21 05:25:23;;;;;;;;;0.00;0.00;;;;;;;;4996305;28;45487;-94
2023/08/21 05:27:56;;;;;;;;;1.00;1.00;;;;;;;;4975581;28;45395;-94
2023/08/21 05:30:21;;;;;;;;;2.00;2.00;;;;;;;;4995562;28;45421;-93
2023/08/21 05:32:47;;;;;;;;;1.33;1.33;;;;;;;;4995344;28;46285;-94
2023/08/21 05:35:12;;;;;;;;;0.67;0.67;;;;;;;;4992625;28;45462;-94
2023/08/21 05:37:37;;;;;;;;;10.00;10.00;;;;;;;;4989828;28;45415;-94
2023/08/21 05:40:03;;;;;;;;;10.33;10.33;;;;;;;;4976777;28;45453;-94
2023/08/21 05:42:28;;;;;;;;;7.67;7.33;;;;;;;;4989449;28;45512;-94
2023/08/21 05:44:53;;;;;;;;;2.00;2.00;;;;;;;;4995082;28;45285;-94
2023/08/21 05:47:19;;;;;;;;;2.00;2.00;;;;;;;;4994872;28;45455;-94
2023/08/21 05:49:44;;;;;;;;;1.00;1.00;;;;;;;;4991258;28;45468;-94
2023/08/21 05:52:09;;;;;;;;;1.00;1.00;;;;;;;;4976530;28;47288;-95
2023/08/21 05:54:34;;;;;;;;;1.33;1.33;;;;;;;;4975906;28;45517;-94
2023/08/21 05:56:59;;;;;;;;;3.00;3.00;;;;;;;;4993904;28;45564;-94
2023/08/21 05:59:32;;;;;;;;;3.00;3.00;;;;;;;;4971477;28;45383;-94
2023/08/21 06:01:57;;;;;;;;;1.00;1.00;;;;;;;;4991214;28;46054;-94
2023/08/21 06:04:22;;;;;;;;;2.00;2.00;;;;;;;;4991967;28;45667;-95
2023/08/21 06:06:48;;;;;;;;;2.00;2.00;;;;;;;;4977745;28;45510;-94
2023/08/21 06:09:13;;;;;;;;;2.00;2.00;;;;;;;;5000608;28;45408;-94
2023/08/21 06:11:38;;;;;;;;;0.67;0.67;;;;;;;;4985311;28;47975;-95
2023/08/21 06:14:04;;;;;;;;;1.00;1.00;;;;;;;;5002895;28;45416;-94
2023/08/21 06:16:29;;;;;;;;;2.00;2.00;;;;;;;;4984069;28;45980;-95
2023/08/21 06:18:54;;;;;;;;;2.00;2.00;;;;;;;;5007577;28;45492;-94
2023/08/21 06:21:19;;;;;;;;;1.67;1.67;;;;;;;;5002911;28;46200;-94
2023/08/21 06:23:45;;;;;;;;;1.33;1.33;;;;;;;;5002201;28;45379;-94
2023/08/21 06:26:10;;;;;;;;;1.00;1.00;;;;;;;;4983829;28;45454;-95
2023/08/21 06:28:35;;;;;;;;;1.67;1.67;;;;;;;;4997692;28;45408;-95
2023/08/21 06:31:03;;;;;;;;;2.00;2.00;;;;;;;;4973190;28;48311;-92
2023/08/21 06:33:28;;;;;;;;;1.33;1.33;;;;;;;;4983198;28;45239;-92
2023/08/21 06:35:53;;;;;;;;;2.00;2.00;;;;;;;;4973489;28;46876;-92
2023/08/21 06:38:19;;;;;;;;;2.00;2.00;;;;;;;;4999738;28;45291;-92
2023/08/21 06:40:45;;;;;;;;;3.00;2.00;;;;;;;;4993244;28;45349;-89
2023/08/21 06:55:16;;;;;;;;;1.33;1.33;;;;;;;;4997478;28;45586;-96
2023/08/21 07:00:16;;;;;;;;;2.67;1.67;;;;;;;;5552636;22;45817;-95
2023/08/21 07:21:42;;;;;;;;;1.33;1.33;;;;;;;;5869336;22;47111;-96
2023/08/21 07:24:08;;;;;;;;;3.00;3.00;;;;;;;;5000086;28;46722;-96
2023/08/21 07:26:33;;;;;;;;;4.00;4.00;;;;;;;;5002241;28;45439;-96
2023/08/21 07:28:58;;;;;;;;;5.33;5.33;;;;;;;;4994197;28;45325;-95
2023/08/21 07:31:23;;;;;;;;;2.00;2.00;;;;;;;;4982982;28;45416;-96
2023/08/21 07:33:49;;;;;;;;;3.00;3.00;;;;;;;;4988777;28;47767;-96
2023/08/21 07:36:17;;;;;;;;;2.00;2.00;;;;;;;;4983015;28;45349;-95
2023/08/21 07:38:43;;;;;;;;;2.67;2.67;;;;;;;;4985119;28;45441;-95
2023/08/21 07:41:09;;;;;;;;;3.33;3.33;;;;;;;;4984958;28;45569;-96
2023/08/21 07:43:35;;;;;;;;;3.00;3.00;;;;;;;;4981973;28;46282;-95
2023/08/21 07:46:04;;;;;;;;;2.00;2.00;;;;;;;;4981872;28;45206;-95
2023/08/21 07:48:29;;;;;;;;;2.33;2.33;;;;;;;;4977716;28;45503;-95
2023/08/21 07:50:54;;;;;;;;;4.00;4.00;;;;;;;;4964021;28;47794;-95
2023/08/21 07:53:20;;;;;;;;;4.00;3.00;;;;;;;;4976510;28;46239;-94
2023/08/21 07:55:46;;;;;;;;;2.67;2.67;;;;;;;;4970999;28;46143;-95
2023/08/21 07:58:11;;;;;;;;;1.00;1.00;;;;;;;;4973368;28;45540;-94
2023/08/21 08:00:37;;;;;;;;;1.00;1.00;;;;;;;;4977104;28;45572;-95
2023/08/21 08:03:03;;;;;;;;;2.00;2.00;;;;;;;;4979825;28;45392;-95
2023/08/21 08:05:28;;;;;;;;;1.67;1.67;;;;;;;;4990786;28;45178;-95
2023/08/21 08:07:58;;;;;;;;;2.00;2.00;;;;;;;;4979135;28;45327;-95
2023/08/21 08:10:24;;;;;;;;;2.00;2.00;;;;;;;;4996659;28;45431;-95
2023/08/21 08:12:49;;;;;;;;;2.00;2.00;;;;;;;;4991705;28;45751;-95
2023/08/21 08:15:14;;;;;;;;;1.00;1.00;;;;;;;;4989052;28;45733;-95
2023/08/21 08:17:40;;;;;;;;;2.00;2.00;;;;;;;;4997890;28;45468;-95
2023/08/21 08:20:06;;;;;;;;;2.67;2.67;;;;;;;;4975934;28;45545;-95
2023/08/21 08:22:31;;;;;;;;;1.00;1.00;;;;;;;;4986060;28;45415;-95
2023/08/21 08:24:56;;;;;;;;;0.00;0.00;;;;;;;;4985039;28;45305;-95
2023/08/21 08:27:21;;;;;;;;;2.00;2.00;;;;;;;;4983909;28;45505;-95
2023/08/21 08:29:47;;;;;;;;;3.33;3.33;;;;;;;;4984137;28;45449;-94
2023/08/21 08:32:12;;;;;;;;;1.00;1.00;;;;;;;;4981437;28;47991;-95
2023/08/21 08:34:37;;;;;;;;;1.00;1.00;;;;;;;;4980611;28;46804;-95
2023/08/21 08:37:05;;;;;;;;;3.67;3.67;;;;;;;;4969875;28;45235;-96
2023/08/21 08:39:30;;;;;;;;;4.33;4.33;;;;;;;;4987705;28;45485;-95
2023/08/21 08:42:02;;;;;;;;;1.33;1.33;;;;;;;;4968322;28;47061;-95
2023/08/21 08:44:29;;;;;;;;;1.67;1.67;;;;;;;;4974123;28;45409;-96
2023/08/21 08:46:55;;;;;;;;;2.00;2.00;;;;;;;;4971522;28;45249;-96
2023/08/21 08:49:21;;;;;;;;;1.00;1.00;;;;;;;;4983311;28;45452;-96
2023/08/21 08:51:48;;;;;;;;;1.00;1.00;;;;;;;;4984100;28;46401;-96
2023/08/21 08:54:14;;;;;;;;;2.67;2.67;;;;;;;;4975120;28;45484;-96
2023/08/21 08:56:40;;;;;;;;;2.00;2.00;;;;;;;;4978227;28;45468;-95
2023/08/21 08:59:07;;;;;;;;;1.00;1.00;;;;;;;;4981652;28;45464;-95
2023/08/21 09:01:33;;;;;;;;;1.67;1.67;;;;;;;;4965721;28;46121;-95
2023/08/21 09:04:00;;;;;;;;;2.00;2.00;;;;;;;;4962180;28;45899;-95
2023/08/21 09:06:26;;;;;;;;;4.00;4.00;;;;;;;;4978438;28;45250;-94
2023/08/21 09:08:55;;;;;;;;;3.00;3.00;;;;;;;;4982760;28;45499;-96
2023/08/21 09:11:20;;;;;;;;;1.33;1.33;;;;;;;;4983073;28;46268;-95
2023/08/21 09:13:51;;;;;;;;;1.33;1.33;;;;;;;;4966267;28;45667;-96
2023/08/21 09:16:20;;;;;;;;;2.00;2.00;;;;;;;;4957750;28;45622;-95
2023/08/21 09:18:49;;;;;;;;;2.33;2.33;;;;;;;;4974332;28;47436;-95
2023/08/21 09:21:21;;;;;;;;;2.33;2.33;;;;;;;;4959266;28;47648;-96
2023/08/21 09:23:48;;;;;;;;;3.00;3.00;;;;;;;;4980285;28;45356;-96
2023/08/21 09:26:23;;;;;;;;;2.33;2.33;;;;;;;;4996941;28;45392;-95
2023/08/21 09:29:11;;;;;;;;;;;;;;;;;;;;;
2023/08/21 09:31:48;;;;;;;;;3.00;3.00;;;;;;;;4990743;28;76150;-96
2023/08/21 09:34:13;;;;;;;;;2.00;2.00;;;;;;;;4982922;28;45261;-96
2023/08/21 09:36:39;;;;;;;;;2.00;2.00;;;;;;;;4983373;28;45270;-96
2023/08/21 09:39:06;;;;;;;;;4.00;2.67;;;;;;;;4963628;28;45484;-96
2023/08/21 09:41:36;;;;;;;;;2.00;2.00;;;;;;;;4989902;28;45415;-96
2023/08/21 09:44:12;;;;;;;;;;;;;;;;;;;;;
2023/08/21 09:46:43;;;;;;;;;2.00;2.00;;;;;;;;4971652;28;68557;-96
2023/08/21 09:49:08;;;;;;;;;2.00;2.00;;;;;;;;4975687;28;45534;-96
2023/08/21 09:51:47;;;;;;;;;2.00;2.00;;;;;;;;4983785;28;45427;-96
2023/08/21 09:54:25;;;;;;;;;3.00;3.00;;;;;;;;4967762;28;45359;-96
2023/08/21 09:56:50;;;;;;;;;2.00;2.00;;;;;;;;4996073;28;45544;-96
2023/08/21 09:59:16;;;;;;;;;2.00;2.00;;;;;;;;4977941;28;45498;-96
2023/08/21 10:01:41;;;;;;;;;2.00;2.00;;;;;;;;4968592;28;45909;-95
2023/08/21 10:04:08;;;;;;;;;2.00;2.00;;;;;;;;4980155;28;45345;-96
2023/08/21 10:06:34;;;;;;;;;2.00;2.00;;;;;;;;4965404;28;45431;-96
2023/08/21 10:09:00;;;;;;;;;1.00;1.00;;;;;;;;4983980;28;45669;-95
2023/08/21 10:11:25;;;;;;;;;1.33;1.33;;;;;;;;4976970;28;46919;-96
2023/08/21 10:13:51;;;;;;;;;0.00;0.00;;;;;;;;4965937;28;45632;-96
2023/08/21 10:16:17;;;;;;;;;2.00;2.00;;;;;;;;4997290;28;45194;-96
2023/08/21 10:18:44;;;;;;;;;1.33;1.33;;;;;;;;4969637;28;45282;-96
2023/08/21 10:21:16;;;;;;;;;2.00;2.00;;;;;;;;4986896;28;46374;-96
2023/08/21 10:23:45;;;;;;;;;1.00;1.00;;;;;;;;4980152;28;45219;-96
2023/08/21 10:26:10;;;;;;;;;1.00;1.00;;;;;;;;4963917;28;45505;-96
2023/08/21 10:28:46;;;;;;;;;0.33;0.33;;;;;;;;4989479;28;45341;-96
2023/08/21 10:31:30;;;;;;;;;1.33;0.33;;;;;;;;4974674;28;45577;-96
2023/08/21 10:33:55;;;;;;;;;1.00;1.00;;;;;;;;4965145;28;45794;-96
2023/08/21 10:36:53;;;;;;;;;0.00;0.00;;;;;;;;4989954;28;45249;-96
2023/08/21 10:39:20;;;;;;;;;0.67;0.67;;;;;;;;4959752;28;45596;-96
2023/08/21 10:41:55;;;;;;;;;0.00;0.00;;;;;;;;4964638;28;46169;-96
2023/08/21 10:44:39;;;;;;;;;0.00;0.00;;;;;;;;4976316;28;45499;-96
2023/08/21 10:52:25;;;;;;;;;0.00;0.00;;;;;;;;5377316;22;1291414;-96
2023/08/21 10:55:05;;;;;;;;;0.00;0.00;;;;;;;;5024973;28;45399;-96
2023/08/21 10:57:32;;;;;;;;;2.00;0.00;;;;;;;;5016208;28;45494;-96
2023/08/21 11:32:25;;;;;;;;;0.67;0.00;;;;;;;;5375649;22;45214;-96
2023/08/21 11:34:52;;;;;;;;;1.00;1.00;;;;;;;;4976304;28;46094;-96
2023/08/21 11:37:18;;;;;;;;;0.00;0.00;;;;;;;;4995827;28;45368;-96
2023/08/21 11:39:54;;;;;;;;;0.00;0.00;;;;;;;;4992860;28;45437;-96
2023/08/21 11:42:28;;;;;;;;;0.00;0.00;;;;;;;;4983646;28;45420;-96
2023/08/21 11:44:56;;;;;;;;;0.00;0.00;;;;;;;;4973415;28;47089;-96
2023/08/21 11:47:22;;;;;;;;;0.00;0.00;;;;;;;;4983422;28;45891;-96
2023/08/21 11:49:49;;;;;;;;;0.00;0.00;;;;;;;;4991604;28;45322;-96
2023/08/21 11:52:17;;;;;;;;;0.00;0.00;;;;;;;;4995372;28;45238;-96
2023/08/21 11:54:42;;;;;;;;;0.00;0.00;;;;;;;;4975769;28;45742;-96
2023/08/21 11:57:09;;;;;;;;;0.00;0.00;;;;;;;;4990843;28;45431;-96
2023/08/21 11:59:35;;;;;;;;;0.00;0.00;;;;;;;;4987507;28;45432;-96
2023/08/21 12:02:01;;;;;;;;;0.00;0.00;;;;;;;;4984588;28;45578;-96
2023/08/21 12:04:26;;;;;;;;;1.00;1.00;;;;;;;;4978462;28;46263;-96
2023/08/21 12:06:52;;;;;;;;;0.00;0.00;;;;;;;;5005397;28;45238;-96
2023/08/21 12:09:19;;;;;;;;;0.00;0.00;;;;;;;;4986418;28;45328;-96
2023/08/21 12:11:44;;;;;;;;;0.00;0.00;;;;;;;;5000050;28;45254;-96
2023/08/21 12:14:09;;;;;;;;;0.00;0.00;;;;;;;;5001373;28;46240;-96
2023/08/21 12:16:34;;;;;;;;;0.00;0.00;;;;;;;;4982775;28;45540;-96
2023/08/21 12:19:00;;;;;;;;;0.00;0.00;;;;;;;;4999662;28;45432;-96
2023/08/21 12:21:25;;;;;;;;;1.00;1.00;;;;;;;;4993839;28;45992;-96
2023/08/21 12:23:50;;;;;;;;;0.00;0.00;;;;;;;;5028780;22;45490;-96
2023/08/21 12:26:22;;;;;;;;;0.00;0.00;;;;;;;;4964842;28;45146;-96
2023/08/21 12:28:48;;;;;;;;;0.00;0.00;;;;;;;;4988447;28;45773;-96
2023/08/21 12:31:13;;;;;;;;;0.00;0.00;;;;;;;;4965586;28;45349;-96
2023/08/21 12:33:39;;;;;;;;;0.00;0.00;;;;;;;;4966732;28;46805;-96
2023/08/21 12:36:08;;;;;;;;;1.00;1.00;;;;;;;;4964169;28;45437;-96
2023/08/21 12:38:33;;;;;;;;;0.00;0.00;;;;;;;;4966477;28;45291;-96
2023/08/21 12:40:59;;;;;;;;;0.00;0.00;;;;;;;;4960342;28;45423;-96
2023/08/21 12:43:25;;;;;;;;;0.00;0.00;;;;;;;;4967541;28;48023;-96
2023/08/21 12:45:50;;;;;;;;;0.00;0.00;;;;;;;;4963120;28;46065;-96
2023/08/21 12:48:15;;;;;;;;;0.00;0.00;;;;;;;;4964852;28;45488;-96
2023/08/21 12:50:41;;;;;;;;;0.33;0.33;;;;;;;;4985115;28;45499;-96
2023/08/21 12:53:06;;;;;;;;;0.00;0.00;;;;;;;;4960778;28;48188;-96
2023/08/21 12:55:31;;;;;;;;;0.00;0.00;;;;;;;;4986507;28;45682;-96
2023/08/21 12:57:57;;;;;;;;;0.00;0.00;;;;;;;;4984753;28;45488;-96
2023/08/21 13:00:22;;;;;;;;;0.00;0.00;;;;;;;;4967548;28;45608;-96
2023/08/21 13:02:48;;;;;;;;;0.00;0.00;;;;;;;;4986144;28;45508;-96
2023/08/21 13:05:13;;;;;;;;;0.00;0.00;;;;;;;;4968476;28;45270;-96
2023/08/21 13:07:39;;;;;;;;;0.00;0.00;;;;;;;;4983996;28;45351;-96
2023/08/21 13:10:07;;;;;;;;;0.00;0.00;;;;;;;;4981888;28;45409;-96
2023/08/21 13:12:32;;;;;;;;;0.00;0.00;;;;;;;;4966449;28;47034;-96
2023/08/21 13:14:58;;;;;;;;;0.00;0.00;;;;;;;;4967320;28;46147;-96
2023/08/21 13:17:23;;;;;;;;;2.00;0.67;;;;;;;;4989934;28;45151;-96
2023/08/21 13:19:49;;;;;;;;;0.00;0.00;;;;;;;;4967539;28;45648;-96
2023/08/21 13:22:16;;;;;;;;;0.00;0.00;;;;;;;;4984363;28;45221;-96
2023/08/21 13:24:41;;;;;;;;;0.00;0.00;;;;;;;;4955449;28;45452;-96
2023/08/21 13:27:07;;;;;;;;;0.00;0.00;;;;;;;;4956787;28;45485;-96
2023/08/21 13:29:32;;;;;;;;;0.00;0.00;;;;;;;;4979944;28;46805;-96
2023/08/21 13:31:58;;;;;;;;;0.00;0.00;;;;;;;;4966079;28;47389;-96
2023/08/21 13:34:23;;;;;;;;;0.00;0.00;;;;;;;;4966395;28;45495;-96
2023/08/21 13:36:51;;;;;;;;;0.00;0.00;;;;;;;;4963132;28;45359;-96
2023/08/21 13:39:16;;;;;;;;;0.00;0.00;;;;;;;;4968473;28;45273;-96
2023/08/21 13:41:41;;;;;;;;;0.00;0.00;;;;;;;;4983977;28;46030;-96
2023/08/21 13:44:07;;;;;;;;;0.00;0.00;;;;;;;;4966299;28;45626;-96
2023/08/21 13:46:33;;;;;;;;;0.00;0.00;;;;;;;;4983438;28;45322;-96
2023/08/21 13:48:58;;;;;;;;;0.00;0.00;;;;;;;;4966066;28;45640;-96
2023/08/21 13:51:23;;;;;;;;;0.00;0.00;;;;;;;;4964226;28;47348;-96
2023/08/21 13:53:49;;;;;;;;;0.00;0.00;;;;;;;;4983202;28;46795;-96
2023/08/21 13:56:14;;;;;;;;;0.00;0.00;;;;;;;;4966523;28;45425;-96
2023/08/21 13:58:39;;;;;;;;;0.00;0.00;;;;;;;;4992700;28;45498;-96
2023/08/21 14:01:06;;;;;;;;;0.00;0.00;;;;;;;;4981963;28;45310;-96
2023/08/21 14:03:31;;;;;;;;;0.00;0.00;;;;;;;;4965148;28;45508;-96
2023/08/21 14:05:57;;;;;;;;;0.00;0.00;;;;;;;;4966492;28;45484;-96
2023/08/21 14:08:22;;;;;;;;;0.00;0.00;;;;;;;;4966120;28;45318;-96
2023/08/21 14:10:47;;;;;;;;;0.00;0.00;;;;;;;;4962515;28;47725;-96
2023/08/21 14:13:20;;;;;;;;;0.00;0.00;;;;;;;;4977413;28;45529;-96
2023/08/21 14:15:45;;;;;;;;;0.00;0.00;;;;;;;;4982626;28;45444;-96
2023/08/21 14:18:11;;;;;;;;;0.00;0.00;;;;;;;;4978825;28;45567;-96
2023/08/21 14:20:36;;;;;;;;;0.00;0.00;;;;;;;;4961815;28;47274;-96
2023/08/21 14:23:04;;;;;;;;;0.00;0.00;;;;;;;;4964576;28;45711;-96
2023/08/21 14:25:29;;;;;;;;;0.00;0.00;;;;;;;;4963487;28;45503;-96
2023/08/21 14:27:54;;;;;;;;;0.00;0.00;;;;;;;;4984052;28;45370;-96
2023/08/21 14:30:20;;;;;;;;;0.00;0.00;;;;;;;;4962960;28;47918;-96
2023/08/21 14:32:45;;;;;;;;;0.00;0.00;;;;;;;;4965551;28;45361;-96
2023/08/21 14:35:13;;;;;;;;;0.00;0.00;;;;;;;;4964238;28;45327;-96
2023/08/21 14:37:41;;;;;;;;;0.00;0.00;;;;;;;;4965502;28;45581;-96
2023/08/21 14:40:07;;;;;;;;;0.00;0.00;;;;;;;;4964887;28;47149;-96
2023/08/21 14:42:33;;;;;;;;;0.00;0.00;;;;;;;;4981992;28;45425;-96
2023/08/21 14:55:18;;;;;;;;;0.00;0.00;;;;;;;;5454239;22;45774;-95
2023/08/21 14:57:47;;;;;;;;;0.00;0.00;;;;;;;;5009228;28;45422;-95
2023/08/21 15:03:21;;;;;;;;;0.00;0.00;;;;;;;;4947648;28;45730;-96
2023/08/21 15:05:46;;;;;;;;;0.00;0.00;;;;;;;;4984152;28;45408;-96
2023/08/21 15:08:12;;;;;;;;;0.00;0.00;;;;;;;;4977993;28;45508;-96
2023/08/21 15:10:37;;;;;;;;;0.00;0.00;;;;;;;;4981249;28;48015;-96
2023/08/21 15:13:02;;;;;;;;;0.00;0.00;;;;;;;;4997259;28;46103;-96
2023/08/21 15:15:28;;;;;;;;;0.00;0.00;;;;;;;;5001378;28;45424;-96
2023/08/21 15:17:53;;;;;;;;;0.00;0.00;;;;;;;;5012291;28;45484;-96
2023/08/21 15:20:18;;;;;;;;;0.00;0.00;;;;;;;;5003824;28;45389;-93
2023/08/21 15:22:47;;;;;;;;;0.00;0.00;;;;;;;;4996549;28;45415;-95
2023/08/21 15:25:14;;;;;;;;;0.00;0.00;;;;;;;;5005652;28;45396;-96
2023/08/21 15:31:12;;;;;;;;;0.00;0.00;;;;;;;;4977280;28;45592;-94
2023/08/21 15:33:44;;;;;;;;;0.00;0.00;;;;;;;;4966850;28;45230;-96
2023/08/21 15:36:13;;;;;;;;;0.00;0.00;;;;;;;;4982813;28;45228;-96
2023/08/21 15:38:50;;;;;;;;;0.00;0.00;;;;;;;;4966216;28;45246;-96
2023/08/21 15:41:15;;;;;;;;;0.00;0.00;;;;;;;;4975320;28;47220;-94
2023/08/21 15:43:40;;;;;;;;;0.00;0.00;;;;;;;;4987190;28;45472;-92
2023/08/21 15:46:06;;;;;;;;;0.00;0.00;;;;;;;;4983630;28;45394;-96
2023/08/21 15:48:31;;;;;;;;;0.67;0.67;;;;;;;;4992334;28;45389;-95
2023/08/21 15:50:57;;;;;;;;;0.00;0.00;;;;;;;;4970869;28;47116;-95
2023/08/21 15:53:22;;;;;;;;;0.00;0.00;;;;;;;;4984634;28;45452;-94
2023/08/21 15:55:47;;;;;;;;;0.00;0.00;;;;;;;;4972654;28;45235;-93
2023/08/21 15:58:12;;;;;;;;;0.00;0.00;;;;;;;;5006069;28;45511;-93
2023/08/21 16:00:38;;;;;;;;;0.00;0.00;;;;;;;;5001185;28;46600;-92
2023/08/21 16:03:04;;;;;;;;;0.00;0.00;;;;;;;;4985551;28;45812;-92
2023/08/21 16:05:29;;;;;;;;;0.00;0.00;;;;;;;;4972798;28;45336;-96
2023/08/21 16:07:55;;;;;;;;;0.00;0.00;;;;;;;;4992715;28;45562;-94
2023/08/21 16:10:20;;;;;;;;;0.00;0.00;;;;;;;;4998021;28;45637;-95